createdAt,value
2023-02-01T00:00:15.452Z,30.201
2023-02-01T00:05:18.506Z,30.205
2023-02-01T00:10:15.499Z,30.202
2023-02-01T00:15:15.451Z,30.207
2023-02-01T00:20:18.472Z,30.214
2023-02-01T00:25:18.459Z,30.218
2023-02-01T00:30:15.530Z,30.222
2023-02-01T00:35:15.458Z,30.220
2023-02-01T00:40:18.544Z,30.220
2023-02-01T00:45:18.451Z,30.218
2023-02-01T00:50:18.496Z,30.217
2023-02-01T00:55:18.500Z,30.219
2023-02-01T01:00:18.416Z,30.219
2023-02-01T01:05:18.471Z,30.219
2023-02-01T01:10:18.512Z,30.219
2023-02-01T01:15:18.451Z,30.220
2023-02-01T01:20:18.477Z,30.222
2023-02-01T01:25:18.456Z,30.223
2023-02-01T01:30:15.371Z,30.229
2023-02-01T01:35:15.296Z,30.233
2023-02-01T01:40:15.537Z,30.230
2023-02-01T01:45:18.471Z,30.232
2023-02-01T01:50:15.524Z,30.231
2023-02-01T01:55:18.491Z,30.234
2023-02-01T02:00:18.485Z,30.236
2023-02-01T02:05:18.449Z,30.233
2023-02-01T02:10:15.337Z,30.235
2023-02-01T02:15:15.327Z,30.233
2023-02-01T02:20:15.333Z,30.235
2023-02-01T02:25:15.319Z,30.239
2023-02-01T02:30:18.493Z,30.243
2023-02-01T02:35:18.539Z,30.247
2023-02-01T02:40:15.545Z,30.246
2023-02-01T02:45:15.331Z,30.243
2023-02-01T02:50:15.593Z,30.248
2023-02-01T02:55:15.582Z,30.249
2023-02-01T03:00:18.512Z,30.251
2023-02-01T03:05:21.423Z,30.249
2023-02-01T03:10:15.363Z,30.243
2023-02-01T03:15:15.368Z,30.243
2023-02-01T03:20:18.528Z,30.248
2023-02-01T03:25:18.586Z,30.256
2023-02-01T03:30:18.575Z,30.255
2023-02-01T03:35:15.372Z,30.250
2023-02-01T03:40:18.575Z,30.248
2023-02-01T03:45:18.558Z,30.245
2023-02-01T03:50:18.587Z,30.247
2023-02-01T03:55:15.600Z,30.246
2023-02-01T04:00:18.607Z,30.244
2023-02-01T04:05:15.572Z,30.243
2023-02-01T04:10:17.464Z,30.246
2023-02-01T04:15:15.613Z,30.244
2023-02-01T04:20:18.531Z,30.249
2023-02-01T04:25:18.600Z,30.249
2023-02-01T04:30:15.670Z,30.249
2023-02-01T04:35:15.583Z,30.245
2023-02-01T04:40:15.595Z,30.241
2023-02-01T04:45:18.584Z,30.247
2023-02-01T04:50:18.641Z,30.244
2023-02-01T04:55:18.530Z,30.246
2023-02-01T05:00:19.823Z,30.244
2023-02-01T05:05:19.833Z,30.242
2023-02-01T05:10:19.907Z,30.246
2023-02-01T05:15:16.820Z,30.240
2023-02-01T05:20:16.691Z,30.243
2023-02-01T05:25:19.875Z,30.241
2023-02-01T05:30:19.885Z,30.242
2023-02-01T05:35:16.894Z,30.237
2023-02-01T05:40:19.865Z,30.234
2023-02-01T05:45:19.898Z,30.235
2023-02-01T05:50:20.022Z,30.230
2023-02-01T05:55:19.828Z,30.232
2023-02-01T06:00:16.720Z,30.230
2023-02-01T06:05:16.875Z,30.227
2023-02-01T06:10:16.896Z,30.232
2023-02-01T06:15:20.068Z,30.226
2023-02-01T06:20:19.861Z,30.222
2023-02-01T06:25:19.914Z,30.218
2023-02-01T06:30:17.021Z,30.224
2023-02-01T06:35:19.939Z,30.223
2023-02-01T06:40:19.920Z,30.224
2023-02-01T06:45:19.865Z,30.226
2023-02-01T06:50:19.863Z,30.230
2023-02-01T06:55:19.833Z,30.230
2023-02-01T07:00:19.922Z,30.230
2023-02-01T07:05:16.972Z,30.232
2023-02-01T07:10:16.961Z,30.227
2023-02-01T07:15:16.930Z,30.226
2023-02-01T07:20:16.739Z,30.231
2023-02-01T07:25:19.920Z,30.229
2023-02-01T07:30:20.003Z,30.234
2023-02-01T07:35:19.862Z,30.235
2023-02-01T07:40:19.889Z,30.230
2023-02-01T07:45:21.566Z,30.228
2023-02-01T07:50:19.934Z,30.233
2023-02-01T07:55:19.902Z,30.229
2023-02-01T08:00:19.929Z,30.229
2023-02-01T08:05:16.989Z,30.230
2023-02-01T08:10:19.988Z,30.229
2023-02-01T08:15:19.926Z,30.232
2023-02-01T08:20:19.983Z,30.225
2023-02-01T08:25:16.943Z,30.224
2023-02-01T08:30:19.980Z,30.228
2023-02-01T08:35:21.187Z,30.227
2023-02-01T08:40:16.760Z,30.227
2023-02-01T08:45:19.948Z,30.234
2023-02-01T08:50:20.006Z,30.232
2023-02-01T08:55:29.832Z,30.227
2023-02-01T09:00:19.962Z,30.220
2023-02-01T09:05:19.906Z,30.230
2023-02-01T09:10:33.514Z,30.218
2023-02-01T09:15:17.041Z,30.221
2023-02-01T09:20:16.898Z,30.224
2023-02-01T09:25:20.041Z,30.222
2023-02-01T09:30:19.946Z,30.222
2023-02-01T09:35:19.942Z,30.227
2023-02-01T09:40:19.933Z,30.227
2023-02-01T09:45:17.026Z,30.227
2023-02-01T09:50:17.078Z,30.225
2023-02-01T09:55:20.016Z,30.225
2023-02-01T10:00:16.894Z,30.228
2023-02-01T10:05:16.798Z,30.226
2023-02-01T10:10:18.038Z,30.222
2023-02-01T10:15:17.029Z,30.226
2023-02-01T10:20:20.021Z,30.226
2023-02-01T10:25:20.075Z,30.227
2023-02-01T10:30:17.011Z,30.227
2023-02-01T10:35:17.037Z,30.226
2023-02-01T10:40:16.936Z,30.229
2023-02-01T10:45:20.005Z,30.229
2023-02-01T10:50:17.008Z,30.230
2023-02-01T10:55:20.067Z,30.229
2023-02-01T11:00:20.295Z,30.236
2023-02-01T11:05:17.027Z,30.234
2023-02-01T11:10:22.035Z,30.232
2023-02-01T11:15:20.051Z,30.235
2023-02-01T11:20:20.022Z,30.235
2023-02-01T11:25:20.076Z,30.239
2023-02-01T11:30:17.059Z,30.237
2023-02-01T11:35:20.061Z,30.237
2023-02-01T11:40:20.061Z,30.236
2023-02-01T11:45:17.064Z,30.238
2023-02-01T11:50:20.059Z,30.238
2023-02-01T11:55:20.030Z,30.241
2023-02-01T12:00:20.035Z,30.245
2023-02-01T12:05:17.047Z,30.245
2023-02-01T12:10:20.059Z,30.249
2023-02-01T12:15:17.032Z,30.248
2023-02-01T12:20:20.081Z,30.254
2023-02-01T12:25:20.166Z,30.253
2023-02-01T12:30:17.079Z,30.252
2023-02-01T12:35:20.078Z,30.253
2023-02-01T12:40:16.975Z,30.254
2023-02-01T12:45:20.061Z,30.246
2023-02-01T12:50:17.122Z,30.251
2023-02-01T12:55:20.122Z,30.251
2023-02-01T13:00:17.109Z,30.248
2023-02-01T13:05:20.076Z,30.247
2023-02-01T13:10:20.084Z,30.249
2023-02-01T13:15:20.085Z,30.248
2023-02-01T13:20:20.060Z,30.250
2023-02-01T13:25:20.052Z,30.254
2023-02-01T13:30:21.581Z,30.252
2023-02-01T13:35:17.388Z,30.254
2023-02-01T13:40:17.134Z,30.260
2023-02-01T13:45:20.088Z,30.260
2023-02-01T13:50:20.023Z,30.261
2023-02-01T13:55:17.100Z,30.263
2023-02-01T14:00:20.155Z,30.263
2023-02-01T14:05:20.107Z,30.263
2023-02-01T14:10:20.079Z,30.260
2023-02-01T14:15:20.046Z,30.260
2023-02-01T14:20:20.235Z,30.257
2023-02-01T14:25:20.072Z,30.258
2023-02-01T14:30:20.110Z,30.257
2023-02-01T14:35:17.105Z,30.255
2023-02-01T14:40:17.098Z,30.257
2023-02-01T14:45:20.623Z,30.255
2023-02-01T14:50:20.131Z,30.255
2023-02-01T14:55:17.152Z,30.257
2023-02-01T15:00:20.175Z,30.254
2023-02-01T15:05:17.195Z,30.253
2023-02-01T15:10:20.124Z,30.253
2023-02-01T15:15:17.177Z,30.248
2023-02-01T15:20:20.136Z,30.246
2023-02-01T15:25:20.199Z,30.249
2023-02-01T15:30:17.181Z,30.246
2023-02-01T15:35:20.195Z,30.242
2023-02-01T15:40:20.118Z,30.242
2023-02-01T15:45:17.209Z,30.236
2023-02-01T15:50:22.342Z,30.234
2023-02-01T15:55:17.132Z,30.234
2023-02-01T16:00:19.965Z,30.232
2023-02-01T16:05:20.165Z,30.233
2023-02-01T16:10:20.147Z,30.232
2023-02-01T16:15:17.187Z,30.231
2023-02-01T16:20:20.151Z,30.228
2023-02-01T16:25:17.212Z,30.223
2023-02-01T16:30:20.223Z,30.221
2023-02-01T16:35:17.037Z,30.216
2023-02-01T16:40:20.197Z,30.213
2023-02-01T16:45:20.347Z,30.209
2023-02-01T16:50:23.042Z,30.206
2023-02-01T16:55:20.206Z,30.205
2023-02-01T17:00:25.278Z,30.202
2023-02-01T17:05:20.210Z,30.198
2023-02-01T17:10:27.788Z,30.195
2023-02-01T17:15:17.176Z,30.193
2023-02-01T17:20:17.243Z,30.193
2023-02-01T17:25:20.212Z,30.189
2023-02-01T17:30:17.205Z,30.186
2023-02-01T17:35:17.258Z,30.187
2023-02-01T17:40:17.246Z,30.186
2023-02-01T17:45:20.193Z,30.186
2023-02-01T17:50:17.270Z,30.182
2023-02-01T17:55:20.208Z,30.180
2023-02-01T18:00:17.263Z,30.177
2023-02-01T18:05:17.269Z,30.177
2023-02-01T18:10:20.635Z,30.176
2023-02-01T18:15:17.246Z,30.171
2023-02-01T18:20:20.264Z,30.169
2023-02-01T18:25:17.291Z,30.166
2023-02-01T18:30:20.223Z,30.169
2023-02-01T18:35:17.050Z,30.167
2023-02-01T18:40:17.224Z,30.164
2023-02-01T18:45:20.239Z,30.162
2023-02-01T18:50:20.256Z,30.159
2023-02-01T18:55:20.225Z,30.161
2023-02-01T19:00:17.232Z,30.158
2023-02-01T19:05:20.277Z,30.157
2023-02-01T19:10:20.278Z,30.156
2023-02-01T19:15:17.239Z,30.156
2023-02-01T19:20:17.285Z,30.157
2023-02-01T19:25:17.291Z,30.156
2023-02-01T19:30:20.263Z,30.157
2023-02-01T19:35:17.332Z,30.159
2023-02-01T19:40:20.225Z,30.159
2023-02-01T19:45:20.244Z,30.158
2023-02-01T19:50:17.261Z,30.157
2023-02-01T19:55:20.284Z,30.154
2023-02-01T20:00:19.392Z,30.155
2023-02-01T20:05:19.357Z,30.155
2023-02-01T20:10:16.420Z,30.154
2023-02-01T20:15:19.402Z,30.152
2023-02-01T20:20:16.510Z,30.155
2023-02-01T20:25:19.425Z,30.157
2023-02-01T20:30:17.328Z,30.156
2023-02-01T20:35:17.182Z,30.153
2023-02-01T20:40:20.310Z,30.153
2023-02-01T20:45:17.341Z,30.152
2023-02-01T20:50:17.349Z,30.151
2023-02-01T20:55:17.342Z,30.150
2023-02-01T21:00:20.369Z,30.149
2023-02-01T21:05:20.287Z,30.152
2023-02-01T21:10:20.307Z,30.152
2023-02-01T21:15:20.272Z,30.154
2023-02-01T21:20:20.341Z,30.153
2023-02-01T21:25:20.299Z,30.157
2023-02-01T21:30:20.340Z,30.158
2023-02-01T21:35:20.376Z,30.161
2023-02-01T21:40:20.310Z,30.163
2023-02-01T21:45:17.374Z,30.163
2023-02-01T21:50:20.355Z,30.162
2023-02-01T21:55:20.355Z,30.164
2023-02-01T22:00:20.369Z,30.168
2023-02-01T22:05:20.344Z,30.168
2023-02-01T22:10:20.315Z,30.171
2023-02-01T22:15:17.384Z,30.172
2023-02-01T22:20:20.329Z,30.171
2023-02-01T22:25:17.384Z,30.174
2023-02-01T22:30:20.418Z,30.175
2023-02-01T22:35:20.387Z,30.179
2023-02-01T22:40:20.337Z,30.184
2023-02-01T22:45:17.181Z,30.190
2023-02-01T22:50:20.358Z,30.189
2023-02-01T22:55:20.318Z,30.190
2023-02-01T23:00:20.313Z,30.188
2023-02-01T23:05:20.364Z,30.191
2023-02-01T23:10:20.306Z,30.190
2023-02-01T23:15:20.322Z,30.191
2023-02-01T23:20:17.363Z,30.192
2023-02-01T23:25:18.407Z,30.195
2023-02-01T23:30:20.410Z,30.196
2023-02-01T23:35:20.321Z,30.194
2023-02-01T23:40:18.361Z,30.193
2023-02-01T23:45:20.407Z,30.193
2023-02-01T23:50:18.349Z,30.192
2023-02-01T23:55:18.336Z,30.195
